Capitol Logistics 3162

Operating for MAA



SEGU
José Joaquín de Olmedo International Airport
Guayaquil, EC
SPJC
Jorge Chávez International Airport
Lima, PE

Activity Log

Date Flight Route Aircraft Duration
No Flights Yet

Route Details

Aircraft Information
Group: Large Widebodies
Types: B744,MD11
Route Data
Demand: V
Distance: 615nm
Duration: 2h 10m
Recm'd Route: EVRE2A EVRED UL780 TRU UV1 ATATU ATATU2
Origin Wx: SEGU 272200Z 23008KT 9999 FEW023 SCT030 BKN100 28/21 Q1009 NOSIG RMK A2981
Dest. Wx: SPJC 272200Z 17014KT 9999 FEW012 SCT030 17/12 Q1013 NOSIG RMK TX19.5 PP000
Notes:

Financial History
Total Freight: 0lbs
Average Load: 0lbs/flt
Fuel Used: 0lbs
Avg. Fuel Used: 0lbs/flt
Fuel Expense: $0
Avg. Fuel Expense: $0
Avg. Fuel Cost: $0/lbs
Total Gross Income: $0
Pilot Pay: $0
Total Expenses: $0
Total Revenue: $0
Average Revenue: $0